createdAt,value
2019-04-16T00:00:34.230Z,45.90
2019-04-16T00:03:29.853Z,45.80
2019-04-16T00:06:31.986Z,45.70
2019-04-16T00:09:36.783Z,46.10
2019-04-16T00:13:08.577Z,46.00
2019-04-16T00:16:03.629Z,46.10
2019-04-16T00:19:04.413Z,45.90
2019-04-16T00:22:15.106Z,46.10
2019-04-16T00:25:10.135Z,46.00
2019-04-16T00:28:05.171Z,46.10
2019-04-16T00:31:00.241Z,46.10
2019-04-16T00:33:55.856Z,46.00
2019-04-16T00:36:50.900Z,45.90
2019-04-16T00:39:46.182Z,46.00
2019-04-16T00:45:53.593Z,45.20
2019-04-16T00:48:48.665Z,45.40
2019-04-16T00:51:43.982Z,45.60
2019-04-16T00:54:39.238Z,45.30
2019-04-16T00:57:36.191Z,45.20
2019-04-16T01:00:31.518Z,45.20
2019-04-16T01:03:26.565Z,45.30
2019-04-16T01:06:22.128Z,45.20
2019-04-16T01:09:17.505Z,45.20
2019-04-16T01:12:13.732Z,46.20
2019-04-16T01:15:09.182Z,45.20
2019-04-16T01:18:08.102Z,45.00
2019-04-16T01:21:01.116Z,45.00
2019-04-16T01:23:57.094Z,45.90
2019-04-16T01:26:52.532Z,45.20
2019-04-16T01:29:47.853Z,45.40
2019-04-16T01:33:14.730Z,45.00
2019-04-16T01:36:23.757Z,44.70
2019-04-16T01:39:21.021Z,45.00
2019-04-16T01:42:17.147Z,45.20
2019-04-16T01:45:12.915Z,44.90
2019-04-16T01:48:08.712Z,45.00
2019-04-16T01:51:04.299Z,45.00
2019-04-16T01:53:59.700Z,45.00
2019-04-16T01:56:59.493Z,45.20
2019-04-16T01:59:51.797Z,45.30
2019-04-16T02:02:47.281Z,45.10
2019-04-16T02:05:42.978Z,45.40
2019-04-16T02:08:38.615Z,45.30
2019-04-16T02:11:34.109Z,45.30
2019-04-16T02:14:30.486Z,45.30
2019-04-16T02:17:26.976Z,45.20
2019-04-16T02:20:22.756Z,45.20
2019-04-16T02:23:18.038Z,45.20
2019-04-16T02:26:13.800Z,45.30
2019-04-16T02:29:10.032Z,45.20
2019-04-16T02:32:06.014Z,45.20
2019-04-16T02:35:03.226Z,45.20
2019-04-16T02:37:58.612Z,45.20
2019-04-16T02:40:53.977Z,45.30
2019-04-16T02:43:50.649Z,45.40
2019-04-16T02:46:46.563Z,45.30
2019-04-16T02:49:42.494Z,45.50
2019-04-16T02:52:54.196Z,45.30
2019-04-16T02:55:58.244Z,45.30
2019-04-16T02:59:09.993Z,45.10
2019-04-16T03:02:14.597Z,45.10
2019-04-16T03:05:21.707Z,45.30
2019-04-16T03:08:17.534Z,45.30
2019-04-16T03:11:17.108Z,45.30
2019-04-16T03:14:11.458Z,45.20
2019-04-16T03:17:23.745Z,45.00
2019-04-16T03:20:20.952Z,45.10
2019-04-16T03:23:16.917Z,45.20
2019-04-16T03:26:16.161Z,45.10
2019-04-16T03:29:10.173Z,45.30
2019-04-16T03:32:06.182Z,45.10
2019-04-16T03:35:02.061Z,45.20
2019-04-16T03:37:57.725Z,45.20
2019-04-16T03:40:55.860Z,45.20
2019-04-16T03:43:50.620Z,45.20
2019-04-16T03:46:47.733Z,45.20
2019-04-16T03:49:44.316Z,45.10
2019-04-16T03:52:42.286Z,45.30
2019-04-16T03:55:39.465Z,45.30
2019-04-16T03:58:35.481Z,45.10
2019-04-16T04:04:31.182Z,45.00
2019-04-16T04:07:31.582Z,45.10
2019-04-16T04:10:30.737Z,45.00
2019-04-16T04:13:25.064Z,45.00
2019-04-16T04:16:22.671Z,44.50
2019-04-16T04:19:19.145Z,45.10
2019-04-16T04:22:15.417Z,45.00
2019-04-16T04:25:12.598Z,44.80
2019-04-16T04:28:09.404Z,44.90
2019-04-16T04:31:08.068Z,43.30
2019-04-16T04:34:04.943Z,41.70
2019-04-16T04:37:02.167Z,41.60
2019-04-16T04:40:00.309Z,40.60
2019-04-16T04:42:57.605Z,40.00
2019-04-16T04:45:56.229Z,39.30
2019-04-16T04:48:55.703Z,38.90
2019-04-16T04:51:49.964Z,38.70
2019-04-16T04:54:46.096Z,38.20
2019-04-16T04:57:42.187Z,37.60
2019-04-16T05:00:40.551Z,37.40
2019-04-16T05:04:07.717Z,37.20
2019-04-16T05:07:07.630Z,37.00
2019-04-16T05:10:09.077Z,37.00
2019-04-16T05:13:09.859Z,37.00
2019-04-16T05:16:07.035Z,37.00
2019-04-16T05:19:15.630Z,37.10
2019-04-16T05:22:22.014Z,37.20
2019-04-16T05:25:21.619Z,37.10
2019-04-16T05:28:19.637Z,37.10
2019-04-16T05:31:26.825Z,37.10
2019-04-16T05:34:25.164Z,37.20
2019-04-16T05:37:28.634Z,37.40
2019-04-16T05:40:34.264Z,37.40
2019-04-16T05:44:01.774Z,37.20
2019-04-16T05:47:00.438Z,37.00
2019-04-16T05:50:08.522Z,36.90
2019-04-16T05:53:12.694Z,37.10
2019-04-16T05:56:49.515Z,37.20
2019-04-16T06:00:09.243Z,37.20
2019-04-16T06:03:04.378Z,37.30
2019-04-16T06:06:36.211Z,37.30
2019-04-16T06:09:37.038Z,37.50
2019-04-16T06:12:58.175Z,37.20
2019-04-16T06:16:23.960Z,37.50
2019-04-16T06:19:51.487Z,37.30
2019-04-16T06:23:08.553Z,37.20
2019-04-16T06:26:49.864Z,37.40
2019-04-16T06:29:54.239Z,37.20
2019-04-16T06:33:09.241Z,37.10
2019-04-16T06:36:26.946Z,37.10
2019-04-16T06:39:46.606Z,37.20
2019-04-16T06:46:57.050Z,37.00
2019-04-16T06:50:39.182Z,37.00
2019-04-16T06:57:34.251Z,37.00
2019-04-16T07:01:15.951Z,36.80
2019-04-16T07:04:32.202Z,37.10
2019-04-16T07:07:52.342Z,37.30
2019-04-16T07:11:54.281Z,37.20
2019-04-16T07:15:15.708Z,37.20
2019-04-16T07:18:16.707Z,37.20
2019-04-16T07:21:14.473Z,37.20
2019-04-16T07:24:11.661Z,37.30
2019-04-16T07:27:19.592Z,37.50
2019-04-16T07:30:57.884Z,37.40
2019-04-16T07:34:47.230Z,37.30
2019-04-16T07:38:06.856Z,37.30
2019-04-16T07:41:19.993Z,37.50
2019-04-16T07:44:36.418Z,37.50
2019-04-16T07:48:07.614Z,37.20
2019-04-16T07:51:26.044Z,37.40
2019-04-16T07:54:39.367Z,37.50
2019-04-16T07:57:36.173Z,38.30
2019-04-16T08:00:33.992Z,37.50
2019-04-16T08:03:30.038Z,37.50
2019-04-16T08:06:27.216Z,37.60
2019-04-16T08:09:29.909Z,37.80
2019-04-16T08:12:30.501Z,37.90
2019-04-16T08:15:22.423Z,38.00
2019-04-16T08:18:26.226Z,38.20
2019-04-16T08:21:23.177Z,38.20
2019-04-16T08:24:27.215Z,38.40
2019-04-16T08:27:24.030Z,38.70
2019-04-16T08:30:20.401Z,39.00
2019-04-16T08:33:34.644Z,39.40
2019-04-16T08:37:13.205Z,39.40
2019-04-16T08:45:20.976Z,39.80
2019-04-16T08:48:21.789Z,40.10
2019-04-16T08:51:29.592Z,40.20
2019-04-16T08:54:24.969Z,40.20
2019-04-16T08:57:26.014Z,40.20
2019-04-16T09:00:21.970Z,40.50
2019-04-16T09:03:19.058Z,40.60
2019-04-16T09:06:18.330Z,40.70
2019-04-16T09:09:43.961Z,40.80
2019-04-16T09:12:45.627Z,40.80
2019-04-16T09:15:37.712Z,40.90
2019-04-16T09:18:55.335Z,40.90
2019-04-16T09:21:51.426Z,41.00
2019-04-16T09:25:01.419Z,41.20
2019-04-16T09:28:24.473Z,41.10
2019-04-16T09:31:35.561Z,41.30
2019-04-16T09:34:48.996Z,41.10
2019-04-16T09:39:36.105Z,41.20
2019-04-16T09:41:43.975Z,41.20
2019-04-16T09:45:04.985Z,41.20
2019-04-16T09:48:41.642Z,41.30
2019-04-16T09:51:45.993Z,41.30
2019-04-16T09:55:00.099Z,41.30
2019-04-16T09:58:12.512Z,41.30
2019-04-16T10:04:19.281Z,41.30
2019-04-16T10:07:14.504Z,41.40
2019-04-16T10:10:10.913Z,41.40
2019-04-16T10:13:36.245Z,41.30
2019-04-16T10:17:17.969Z,41.30
2019-04-16T10:20:16.020Z,41.30
2019-04-16T10:23:43.750Z,41.50
2019-04-16T10:27:00.624Z,41.40
2019-04-16T10:30:25.923Z,41.40
2019-04-16T10:33:31.612Z,41.30
2019-04-16T10:36:27.568Z,41.40
2019-04-16T10:39:45.822Z,41.30
2019-04-16T10:43:19.967Z,41.30
2019-04-16T10:46:49.932Z,41.30
2019-04-16T10:50:17.768Z,41.30
2019-04-16T10:53:32.327Z,41.40
2019-04-16T10:56:48.298Z,41.40
2019-04-16T11:00:00.182Z,41.40
2019-04-16T11:03:11.879Z,41.40
2019-04-16T11:06:14.677Z,41.30
2019-04-16T11:09:18.473Z,41.30
2019-04-16T11:12:19.756Z,41.30
2019-04-16T11:15:15.125Z,41.30
2019-04-16T11:18:30.218Z,41.40
2019-04-16T11:21:42.982Z,41.50
2019-04-16T11:25:05.090Z,41.40
2019-04-16T11:28:14.961Z,41.50
2019-04-16T11:31:23.736Z,41.50
2019-04-16T11:34:19.472Z,41.60
2019-04-16T11:37:36.003Z,41.50
2019-04-16T11:40:30.009Z,41.60
2019-04-16T11:43:25.270Z,41.70
2019-04-16T11:46:21.384Z,41.70
2019-04-16T11:49:22.518Z,41.80
2019-04-16T11:52:17.861Z,41.80
2019-04-16T11:55:23.140Z,41.80
2019-04-16T13:46:28.923Z,42.20
2019-04-16T14:14:24.534Z,42.30
